createdAt,value
2023-03-06T00:01:57.459Z,6.51
2023-03-06T00:04:36.615Z,6.53
2023-03-06T00:07:16.322Z,6.56
2023-03-06T00:10:08.852Z,6.63
2023-03-06T00:12:48.410Z,6.89
2023-03-06T00:15:39.514Z,6.65
2023-03-06T00:18:19.427Z,6.61
2023-03-06T00:21:11.126Z,6.70
2023-03-06T00:23:50.403Z,6.78
2023-03-06T00:26:19.251Z,6.48
2023-03-06T00:28:47.854Z,6.90
2023-03-06T00:31:40.099Z,6.59
2023-03-06T00:34:19.411Z,6.46
2023-03-06T00:36:47.440Z,6.41
2023-03-06T00:39:15.872Z,6.44
2023-03-06T00:41:45.384Z,6.54
2023-03-06T00:44:14.686Z,6.47
2023-03-06T00:46:42.332Z,6.59
2023-03-06T00:49:38.060Z,6.64
2023-03-06T00:52:23.891Z,6.71
2023-03-06T00:54:52.326Z,6.97
2023-03-06T00:57:20.177Z,7.02
2023-03-06T00:59:47.692Z,6.92
2023-03-06T01:02:20.106Z,6.94
2023-03-06T01:04:49.587Z,6.70
2023-03-06T01:07:39.164Z,6.82
2023-03-06T01:10:08.261Z,6.73
2023-03-06T01:12:54.420Z,6.68
2023-03-06T01:15:22.984Z,6.46
2023-03-06T01:18:24.448Z,6.44
2023-03-06T01:20:51.905Z,6.67
2023-03-06T01:23:20.438Z,6.89
2023-03-06T01:25:48.409Z,6.77
2023-03-06T01:28:44.460Z,6.84
2023-03-06T01:31:33.517Z,6.85
2023-03-06T01:34:28.008Z,6.91
2023-03-06T01:37:12.583Z,6.77
2023-03-06T01:40:05.330Z,6.80
2023-03-06T01:42:52.770Z,6.14
2023-03-06T01:45:51.154Z,6.40
2023-03-06T01:48:30.216Z,6.13
2023-03-06T01:51:24.511Z,6.60
2023-03-06T01:54:09.619Z,6.69
2023-03-06T01:57:18.710Z,6.55
2023-03-06T02:00:11.293Z,6.53
2023-03-06T02:02:42.706Z,6.52
2023-03-06T02:05:10.795Z,6.52
2023-03-06T02:07:38.930Z,6.53
2023-03-06T02:10:33.425Z,6.57
2023-03-06T02:13:01.816Z,6.78
2023-03-06T02:15:31.686Z,7.01
2023-03-06T02:18:00.328Z,6.66
2023-03-06T02:20:44.792Z,6.54
2023-03-06T02:23:25.377Z,6.71
2023-03-06T02:26:05.270Z,6.64
2023-03-06T02:28:35.745Z,6.72
2023-03-06T02:31:06.285Z,6.73
2023-03-06T02:34:09.025Z,6.76
2023-03-06T02:37:10.238Z,6.73
2023-03-06T02:39:43.128Z,6.75
2023-03-06T02:42:18.010Z,6.85
2023-03-06T02:44:46.016Z,6.66
2023-03-06T02:47:14.130Z,7.05
2023-03-06T02:49:41.846Z,6.80
2023-03-06T02:52:10.057Z,7.20
2023-03-06T02:54:40.190Z,6.86
2023-03-06T02:57:08.229Z,6.89
2023-03-06T02:59:36.672Z,6.70
2023-03-06T03:02:05.852Z,6.74
2023-03-06T03:04:34.835Z,6.76
2023-03-06T03:07:03.056Z,6.76
2023-03-06T03:09:36.971Z,6.75
2023-03-06T03:12:06.241Z,6.85
2023-03-06T03:14:34.259Z,6.87
2023-03-06T03:17:02.499Z,6.84
2023-03-06T03:19:30.838Z,7.20
2023-03-06T03:21:58.627Z,7.16
2023-03-06T03:24:26.578Z,6.90
2023-03-06T03:26:55.154Z,6.74
2023-03-06T03:29:23.219Z,6.70
2023-03-06T03:31:51.024Z,6.66
2023-03-06T03:34:19.063Z,7.03
2023-03-06T03:36:47.352Z,6.70
2023-03-06T03:39:15.162Z,6.71
2023-03-06T03:41:43.752Z,6.85
2023-03-06T03:44:11.747Z,6.65
2023-03-06T03:46:39.658Z,6.59
2023-03-06T03:49:08.695Z,6.72
2023-03-06T03:51:36.635Z,6.68
2023-03-06T03:54:06.182Z,6.73
2023-03-06T03:56:35.564Z,6.87
2023-03-06T04:02:06.392Z,7.01
2023-03-06T04:04:35.360Z,6.96
2023-03-06T04:07:29.068Z,6.83
2023-03-06T04:10:21.068Z,6.75
2023-03-06T04:13:12.002Z,6.72
2023-03-06T04:16:04.211Z,6.97
2023-03-06T04:18:55.022Z,6.75
2023-03-06T04:21:46.049Z,6.88
2023-03-06T04:24:37.033Z,6.66
2023-03-06T04:27:29.050Z,6.61
2023-03-06T04:30:20.068Z,6.60
2023-03-06T04:32:48.158Z,6.89
2023-03-06T04:35:15.877Z,6.77
2023-03-06T04:37:44.968Z,6.88
2023-03-06T04:40:18.244Z,6.78
2023-03-06T04:42:46.040Z,6.81
2023-03-06T04:45:14.129Z,6.74
2023-03-06T04:47:42.340Z,6.88
2023-03-06T04:50:10.995Z,6.63
2023-03-06T04:52:40.478Z,6.54
2023-03-06T04:55:10.932Z,6.89
2023-03-06T04:57:40.256Z,7.03
2023-03-06T05:00:12.279Z,6.85
2023-03-06T05:02:42.638Z,6.68
2023-03-06T05:05:10.856Z,6.81
2023-03-06T05:07:39.353Z,6.77
2023-03-06T05:10:07.902Z,6.70
2023-03-06T05:12:37.234Z,6.67
2023-03-06T05:15:05.768Z,6.64
2023-03-06T05:17:33.781Z,6.67
2023-03-06T05:20:01.253Z,6.66
2023-03-06T05:22:29.224Z,6.81
2023-03-06T05:24:57.030Z,6.80
2023-03-06T05:27:24.655Z,6.78
2023-03-06T05:29:52.211Z,6.82
2023-03-06T05:32:21.905Z,6.83
2023-03-06T05:34:49.754Z,6.93
2023-03-06T05:37:44.065Z,6.83
2023-03-06T05:40:12.647Z,6.79
2023-03-06T05:42:40.120Z,6.75
2023-03-06T05:45:08.518Z,6.91
2023-03-06T05:47:36.882Z,6.84
2023-03-06T05:50:05.021Z,6.76
2023-03-06T05:52:32.631Z,6.84
2023-03-06T05:55:00.590Z,6.93
2023-03-06T05:57:40.820Z,6.92
2023-03-06T06:00:28.627Z,6.88
2023-03-06T06:02:56.557Z,7.24
2023-03-06T06:05:24.319Z,7.00
2023-03-06T06:07:51.850Z,6.89
2023-03-06T06:10:20.056Z,7.21
2023-03-06T06:12:47.472Z,7.19
2023-03-06T06:15:42.143Z,6.97
2023-03-06T06:21:39.970Z,6.77
2023-03-06T06:24:31.699Z,6.97
2023-03-06T06:27:11.315Z,6.87
2023-03-06T06:30:06.962Z,6.74
2023-03-06T06:32:54.380Z,6.82
2023-03-06T06:35:47.997Z,6.97
2023-03-06T06:38:17.230Z,7.06
2023-03-06T06:41:46.144Z,7.32
2023-03-06T06:44:00.542Z,7.26
2023-03-06T06:49:33.592Z,7.31
2023-03-06T06:52:25.067Z,7.18
2023-03-06T06:54:53.138Z,7.15
2023-03-06T06:57:36.300Z,7.44
2023-03-06T07:00:16.166Z,7.29
2023-03-06T07:03:08.124Z,7.06
2023-03-06T07:05:43.988Z,7.14
2023-03-06T07:08:56.630Z,7.39
2023-03-06T07:11:38.848Z,7.66
2023-03-06T07:14:29.963Z,7.64
2023-03-06T07:17:09.812Z,7.59
2023-03-06T07:20:10.667Z,7.44
2023-03-06T07:22:52.389Z,7.49
2023-03-06T07:25:37.251Z,7.38
2023-03-06T07:28:18.613Z,7.11
2023-03-06T07:31:09.981Z,7.35
2023-03-06T07:33:50.493Z,7.46
2023-03-06T07:36:42.050Z,7.34
2023-03-06T07:39:21.255Z,7.50
2023-03-06T07:42:15.630Z,7.31
2023-03-06T07:45:08.752Z,7.29
2023-03-06T07:48:00.050Z,7.76
2023-03-06T07:50:39.359Z,7.50
2023-03-06T07:53:31.840Z,7.74
2023-03-06T07:56:11.998Z,7.80
2023-03-06T07:59:03.483Z,8.12
2023-03-06T08:01:43.227Z,8.01
2023-03-06T08:04:34.459Z,7.77
2023-03-06T08:07:14.133Z,7.51
2023-03-06T08:13:36.988Z,7.63
2023-03-06T08:16:30.094Z,7.59
2023-03-06T08:19:09.231Z,7.85
2023-03-06T08:25:30.873Z,7.99
2023-03-06T08:28:22.180Z,7.82
2023-03-06T08:31:12.233Z,7.77
2023-03-06T08:37:33.976Z,7.88
2023-03-06T08:43:55.741Z,7.85
2023-03-06T08:46:46.976Z,7.98
2023-03-06T08:49:26.212Z,7.84
2023-03-06T08:52:17.158Z,7.92
2023-03-06T08:54:58.114Z,7.74
2023-03-06T08:57:50.085Z,7.88
2023-03-06T09:00:29.366Z,7.53
2023-03-06T09:03:20.074Z,7.91
2023-03-06T09:06:11.772Z,7.79
2023-03-06T09:09:03.981Z,8.31
2023-03-06T09:11:43.246Z,8.60
2023-03-06T09:14:34.129Z,8.49
2023-03-06T09:17:13.266Z,8.64
2023-03-06T09:23:35.683Z,8.27
2023-03-06T09:26:39.718Z,8.47
2023-03-06T09:29:12.617Z,8.00
2023-03-06T09:31:53.330Z,8.08
2023-03-06T09:34:33.465Z,8.13
2023-03-06T09:37:17.678Z,8.39
2023-03-06T09:39:57.857Z,8.57
2023-03-06T09:42:34.376Z,8.62
2023-03-06T09:45:07.233Z,8.62
2023-03-06T09:48:04.920Z,8.18
2023-03-06T09:50:46.586Z,8.56
2023-03-06T09:53:45.394Z,8.77
2023-03-06T09:56:32.036Z,8.95
2023-03-06T09:59:26.359Z,8.91
2023-03-06T10:02:21.183Z,8.78
2023-03-06T10:05:24.765Z,8.73
2023-03-06T10:08:10.238Z,8.69
2023-03-06T10:11:04.116Z,8.71
2023-03-06T10:13:50.028Z,9.13
2023-03-06T10:16:41.451Z,8.71
2023-03-06T10:19:21.578Z,8.58
2023-03-06T10:22:37.174Z,8.89
2023-03-06T10:26:01.442Z,8.75
2023-03-06T10:29:06.675Z,8.54
2023-03-06T10:31:52.347Z,8.92
2023-03-06T10:34:44.477Z,8.68
2023-03-06T10:41:08.123Z,9.20
2023-03-06T10:44:04.925Z,8.92
2023-03-06T10:46:46.921Z,8.64
2023-03-06T10:49:38.196Z,9.01
2023-03-06T10:52:17.188Z,8.90
2023-03-06T10:55:23.203Z,8.58
2023-03-06T11:36:32.272Z,9.55
2023-03-06T11:39:05.290Z,9.55
2023-03-06T11:41:49.732Z,9.38
2023-03-06T11:44:37.109Z,9.45
2023-03-06T11:47:12.449Z,9.85
2023-03-06T11:50:21.998Z,9.78
2023-03-06T11:52:53.761Z,9.71
2023-03-06T11:55:34.393Z,9.79
2023-03-06T11:58:17.785Z,9.80
2023-03-06T12:00:54.191Z,10.27
2023-03-06T12:03:39.112Z,9.71
2023-03-06T12:06:27.974Z,9.60
2023-03-06T12:09:14.980Z,9.74
2023-03-06T12:11:53.257Z,9.80
2023-03-06T12:15:00.586Z,9.65
2023-03-06T12:17:46.633Z,9.79
2023-03-06T12:20:35.358Z,9.73
2023-03-06T12:23:21.134Z,9.70
2023-03-06T12:26:11.122Z,9.48
2023-03-06T12:29:33.749Z,10.06
2023-03-06T12:32:50.123Z,10.17
2023-03-06T12:35:59.263Z,10.08
2023-03-06T12:39:22.205Z,10.36
2023-03-06T12:41:56.116Z,10.16
2023-03-06T12:44:51.078Z,10.16
2023-03-06T12:47:23.554Z,10.25
2023-03-06T12:50:24.488Z,10.37
2023-03-06T12:53:01.198Z,10.63
2023-03-06T12:55:40.143Z,10.67
2023-03-06T12:58:30.098Z,10.82
2023-03-06T13:01:38.084Z,10.83
2023-03-06T13:04:29.294Z,10.93
2023-03-06T13:07:09.188Z,10.99
2023-03-06T13:10:05.315Z,11.08
2023-03-06T13:13:00.099Z,11.37
2023-03-06T13:15:37.124Z,11.23
2023-03-06T13:18:23.093Z,11.22
2023-03-06T13:20:56.351Z,11.42
2023-03-06T13:23:29.926Z,11.11
2023-03-06T13:26:26.109Z,11.28
2023-03-06T13:29:41.103Z,11.28
2023-03-06T13:32:18.985Z,11.16
2023-03-06T13:34:50.171Z,11.69
2023-03-06T13:37:25.340Z,11.47
2023-03-06T13:40:01.783Z,11.08
2023-03-06T13:42:44.107Z,11.38
2023-03-06T13:45:46.396Z,11.02
2023-03-06T13:48:44.344Z,10.89
2023-03-06T13:51:26.313Z,10.44
2023-03-06T13:54:25.047Z,10.00
2023-03-06T13:57:38.152Z,10.41
2023-03-06T14:03:32.056Z,10.08
2023-03-06T14:06:02.321Z,9.56
2023-03-06T14:08:41.373Z,9.60
2023-03-06T14:11:20.084Z,9.92
2023-03-06T14:13:55.092Z,9.88
2023-03-06T14:16:34.896Z,10.31
2023-03-06T14:19:22.598Z,10.24
2023-03-06T14:21:58.317Z,9.89
2023-03-06T14:24:37.569Z,9.30
2023-03-06T14:27:13.151Z,9.31
2023-03-06T14:29:43.324Z,9.83
2023-03-06T14:32:28.352Z,9.82
2023-03-06T14:35:08.161Z,9.63
2023-03-06T14:37:51.043Z,9.63
2023-03-06T14:40:32.936Z,9.42
2023-03-06T14:43:32.136Z,9.40
2023-03-06T14:46:10.185Z,9.60
2023-03-06T14:48:46.857Z,9.41
2023-03-06T14:51:23.060Z,9.33
2023-03-06T14:53:59.404Z,9.15
2023-03-06T14:56:29.561Z,9.14
2023-03-06T14:59:04.465Z,9.69
2023-03-06T15:09:47.959Z,9.92
2023-03-06T15:12:22.814Z,9.92
2023-03-06T15:14:58.993Z,9.68
2023-03-06T15:20:01.263Z,9.41
2023-03-06T15:22:31.711Z,8.94
2023-03-06T15:25:32.345Z,9.20
2023-03-06T15:28:03.387Z,9.44
2023-03-06T15:30:33.669Z,9.35
2023-03-06T15:33:22.848Z,9.37
2023-03-06T15:36:00.985Z,9.12
2023-03-06T15:38:41.907Z,9.23
2023-03-06T15:41:36.064Z,8.74
2023-03-06T15:44:20.724Z,9.13
2023-03-06T15:46:53.905Z,8.81
2023-03-06T15:49:27.330Z,8.88
2023-03-06T15:52:30.347Z,8.66
2023-03-06T15:55:26.267Z,9.00
2023-03-06T15:58:04.368Z,8.62
2023-03-06T16:00:38.682Z,8.75
2023-03-06T16:03:11.068Z,8.93
2023-03-06T16:05:41.267Z,8.54
2023-03-06T16:08:15.187Z,8.90
2023-03-06T16:10:44.928Z,8.76
2023-03-06T16:13:19.010Z,9.01
2023-03-06T16:15:49.259Z,8.93
2023-03-06T16:21:17.086Z,8.44
2023-03-06T16:23:50.876Z,8.82
2023-03-06T16:26:23.837Z,8.91
2023-03-06T16:28:52.346Z,8.91
2023-03-06T16:31:32.011Z,8.92
2023-03-06T16:34:03.625Z,8.48
2023-03-06T16:36:48.439Z,8.70
2023-03-06T16:39:20.908Z,8.67
2023-03-06T16:41:52.380Z,8.77
2023-03-06T16:44:23.254Z,8.62
2023-03-06T16:47:01.422Z,8.61
2023-03-06T16:49:31.466Z,8.42
2023-03-06T16:51:59.001Z,8.70
2023-03-06T16:54:26.614Z,8.93
2023-03-06T16:56:54.828Z,9.01
2023-03-06T16:59:22.434Z,8.81
2023-03-06T17:01:50.126Z,9.26
2023-03-06T17:04:19.482Z,9.06
2023-03-06T17:06:47.178Z,8.71
2023-03-06T17:09:14.815Z,8.79
2023-03-06T17:11:46.732Z,8.90
2023-03-06T17:14:14.559Z,9.08
2023-03-06T17:16:42.804Z,8.94
2023-03-06T17:19:14.495Z,8.81
2023-03-06T17:21:43.487Z,8.80
2023-03-06T17:24:11.407Z,8.86
2023-03-06T17:26:40.233Z,8.85
2023-03-06T17:29:09.535Z,8.93
2023-03-06T17:31:40.499Z,8.96
2023-03-06T17:34:08.967Z,8.76
2023-03-06T17:36:36.648Z,8.56
2023-03-06T17:39:05.025Z,8.49
2023-03-06T17:41:34.228Z,8.44
2023-03-06T17:44:02.108Z,8.25
2023-03-06T17:46:32.001Z,7.76
2023-03-06T17:49:00.616Z,7.48
2023-03-06T17:51:28.763Z,7.69
2023-03-06T17:53:56.637Z,7.81
2023-03-06T17:56:24.800Z,7.90
2023-03-06T17:58:52.880Z,7.88
2023-03-06T18:01:27.644Z,7.63
2023-03-06T18:03:55.738Z,7.44
2023-03-06T18:06:24.957Z,7.74
2023-03-06T18:08:53.096Z,7.67
2023-03-06T18:11:22.218Z,7.84
2023-03-06T18:13:50.320Z,7.80
2023-03-06T18:16:20.436Z,7.87
2023-03-06T18:18:52.156Z,7.83
2023-03-06T18:21:20.278Z,7.95
2023-03-06T18:23:48.629Z,7.98
2023-03-06T18:26:18.830Z,8.05
2023-03-06T18:28:48.807Z,7.98
2023-03-06T18:31:18.170Z,8.32
2023-03-06T18:33:48.251Z,8.37
2023-03-06T18:36:16.338Z,8.51
2023-03-06T18:38:45.680Z,8.33
2023-03-06T18:41:14.259Z,8.24
2023-03-06T18:43:41.835Z,8.39
2023-03-06T18:46:09.924Z,8.29
2023-03-06T18:48:38.135Z,8.35
2023-03-06T18:51:10.702Z,8.52
2023-03-06T18:53:40.089Z,8.49
2023-03-06T18:56:10.717Z,8.42
2023-03-06T18:58:38.695Z,8.46
2023-03-06T19:01:07.474Z,8.79
2023-03-06T19:03:35.274Z,8.82
2023-03-06T19:06:08.720Z,8.36
2023-03-06T19:08:38.094Z,8.11
2023-03-06T19:11:12.464Z,8.45
2023-03-06T19:13:40.291Z,8.34
2023-03-06T19:16:08.802Z,7.99
2023-03-06T19:18:36.771Z,8.10
2023-03-06T19:21:12.299Z,8.34
2023-03-06T19:23:40.739Z,8.23
2023-03-06T19:26:08.795Z,8.57
2023-03-06T19:28:38.063Z,8.37
2023-03-06T19:31:14.830Z,8.46
2023-03-06T19:33:43.599Z,8.40
2023-03-06T19:36:21.125Z,8.72
2023-03-06T19:38:54.432Z,8.80
2023-03-06T19:41:22.735Z,8.63
2023-03-06T19:51:33.661Z,8.98
2023-03-06T19:54:02.145Z,8.98
2023-03-06T19:56:31.925Z,8.40
2023-03-06T19:58:59.871Z,8.18
2023-03-06T20:01:45.748Z,8.10
2023-03-06T20:04:32.132Z,8.21
2023-03-06T20:07:15.725Z,8.09
2023-03-06T20:10:06.610Z,8.29
2023-03-06T20:12:50.643Z,8.25
2023-03-06T20:15:39.033Z,8.42
2023-03-06T20:18:47.742Z,8.16
2023-03-06T20:21:32.879Z,8.22
2023-03-06T20:24:26.010Z,8.27
2023-03-06T20:27:10.750Z,8.31
2023-03-06T20:29:43.404Z,8.25
2023-03-06T20:32:28.219Z,8.31
2023-03-06T20:35:00.203Z,8.36
2023-03-06T20:37:47.632Z,8.31
2023-03-06T20:40:41.520Z,8.40
2023-03-06T20:43:33.810Z,8.32
2023-03-06T20:46:20.296Z,8.41
2023-03-06T20:49:08.773Z,8.39
2023-03-06T20:51:39.273Z,8.21
2023-03-06T20:54:19.125Z,8.27
2023-03-06T20:57:06.960Z,8.22
2023-03-06T20:59:56.989Z,8.26
2023-03-06T21:02:47.151Z,8.35
2023-03-06T21:05:31.002Z,8.23
2023-03-06T21:08:38.920Z,8.06
2023-03-06T21:11:06.385Z,8.20
2023-03-06T21:13:34.470Z,8.32
2023-03-06T21:16:06.683Z,8.27
2023-03-06T21:18:34.904Z,8.07
2023-03-06T21:21:22.361Z,8.17
2023-03-06T21:23:51.149Z,8.35
2023-03-06T21:26:23.888Z,8.29
2023-03-06T21:28:52.212Z,8.04
2023-03-06T21:31:21.414Z,8.01
2023-03-06T21:33:49.876Z,8.14
2023-03-06T21:36:19.673Z,8.41
2023-03-06T21:38:48.594Z,8.01
2023-03-06T21:41:18.588Z,7.72
2023-03-06T21:43:47.088Z,7.94
2023-03-06T21:46:43.432Z,7.90
2023-03-06T21:49:11.244Z,8.08
2023-03-06T21:51:39.341Z,7.94
2023-03-06T21:54:07.240Z,7.91
2023-03-06T21:56:35.074Z,7.90
2023-03-06T21:59:17.562Z,7.89
2023-03-06T22:01:46.778Z,7.90
2023-03-06T22:04:14.817Z,7.84
2023-03-06T22:06:42.416Z,7.69
2023-03-06T22:09:12.941Z,7.71
2023-03-06T22:11:42.247Z,7.91
2023-03-06T22:14:09.864Z,7.69
2023-03-06T22:16:37.520Z,7.79
2023-03-06T22:19:05.434Z,7.80
2023-03-06T22:21:33.131Z,7.68
2023-03-06T22:24:00.759Z,7.80
2023-03-06T22:26:29.641Z,7.68
2023-03-06T22:28:57.436Z,7.52
2023-03-06T22:31:26.997Z,7.55
2023-03-06T22:33:56.107Z,7.57
2023-03-06T22:36:24.110Z,7.51
2023-03-06T22:38:56.897Z,7.40
2023-03-06T22:41:28.148Z,7.42
2023-03-06T22:43:59.860Z,7.63
2023-03-06T22:46:28.385Z,7.42
2023-03-06T22:49:00.157Z,7.42
2023-03-06T22:51:28.766Z,7.59
2023-03-06T22:53:56.265Z,7.46
2023-03-06T22:56:24.400Z,7.32
2023-03-06T22:58:52.370Z,7.57
2023-03-06T23:01:21.179Z,7.37
2023-03-06T23:03:53.872Z,7.18
2023-03-06T23:06:27.401Z,7.22
2023-03-06T23:09:04.074Z,7.49
2023-03-06T23:11:32.072Z,7.13
2023-03-06T23:14:19.098Z,7.23
2023-03-06T23:17:05.255Z,7.18
2023-03-06T23:19:51.491Z,7.10
2023-03-06T23:22:37.677Z,7.10
2023-03-06T23:25:24.071Z,7.08
2023-03-06T23:27:51.956Z,7.11
2023-03-06T23:30:19.516Z,6.95
2023-03-06T23:32:47.145Z,7.13
2023-03-06T23:35:15.134Z,7.08
2023-03-06T23:37:42.778Z,7.11
2023-03-06T23:40:10.956Z,7.12
2023-03-06T23:42:38.876Z,7.00
2023-03-06T23:45:07.481Z,7.07
2023-03-06T23:47:35.039Z,6.93
2023-03-06T23:50:03.026Z,6.86
2023-03-06T23:52:30.874Z,6.74
2023-03-06T23:54:58.475Z,6.85
2023-03-06T23:57:26.257Z,6.82
2023-03-06T23:59:53.970Z,6.88
